Time,TemperatureF,DewpointF,PressureIn,WindDirection,WindDirectionDegrees,WindSpeedMPH,WindSpeedGustMPH,Humidity,HourlyPrecipIn,Conditions,Clouds,dailyrainin,SoftwareType,DateUTC
2013-03-05 00:03:00,30.6,16.3,29.90,NNW,338,0.0,0.9,55,0.00,,,0.00,WUHU216HW,2013-03-05 08:03:00,
2013-03-05 00:08:00,30.6,16.3,29.90,NNW,338,0.0,0.9,55,0.00,,,0.00,WUHU216HW,2013-03-05 08:08:00,
2013-03-05 00:13:00,30.6,16.3,29.89,WNW,293,0.2,0.4,55,0.00,,,0.00,WUHU216HW,2013-03-05 08:13:00,
2013-03-05 00:18:00,30.6,16.3,29.89,WNW,293,0.4,0.4,55,0.00,,,0.00,WUHU216HW,2013-03-05 08:18:00,
2013-03-05 00:23:00,30.6,16.3,29.89,NW,315,0.2,1.1,55,0.00,,,0.00,WUHU216HW,2013-03-05 08:23:00,
2013-03-05 00:28:00,30.6,16.3,29.89,NW,315,0.0,1.1,55,0.00,,,0.00,WUHU216HW,2013-03-05 08:28:00,
2013-03-05 00:33:00,30.6,16.3,29.90,WNW,293,0.0,0.4,55,0.00,,,0.00,WUHU216HW,2013-03-05 08:33:00,
2013-03-05 00:38:00,30.6,16.3,29.89,NNW,338,0.4,0.4,55,0.00,,,0.00,WUHU216HW,2013-03-05 08:38:00,
2013-03-05 00:43:00,30.6,16.3,29.89,North,0,0.0,0.4,55,0.00,,,0.00,WUHU216HW,2013-03-05 08:43:00,
2013-03-05 00:48:00,30.2,15.9,29.89,North,0,0.0,0.2,55,0.00,,,0.00,WUHU216HW,2013-03-05 08:48:00,
2013-03-05 00:53:00,30.1,16.2,29.89,NNW,338,0.0,0.2,56,0.00,,,0.00,WUHU216HW,2013-03-05 08:53:00,
2013-03-05 00:58:00,29.9,16.0,29.89,NW,315,0.0,0.2,56,0.00,,,0.00,WUHU216HW,2013-03-05 08:58:00,
2013-03-05 01:03:00,30.1,16.2,29.89,North,0,0.4,0.4,56,0.00,,,0.00,WUHU216HW,2013-03-05 09:03:00,
2013-03-05 01:08:00,29.9,16.5,29.89,North,0,0.0,0.4,57,0.00,,,0.00,WUHU216HW,2013-03-05 09:08:00,
2013-03-05 01:13:00,29.9,16.0,29.89,North,0,0.0,0.4,56,0.00,,,0.00,WUHU216HW,2013-03-05 09:13:00,
2013-03-05 01:19:00,29.9,16.5,29.89,North,0,0.0,0.0,57,0.00,,,0.00,WUHU216HW,2013-03-05 09:19:00,
2013-03-05 01:24:00,29.7,16.3,29.89,North,0,0.2,0.2,57,0.00,,,0.00,WUHU216HW,2013-03-05 09:24:00,
2013-03-05 01:29:00,29.5,16.1,29.89,NNW,338,0.0,0.2,57,0.00,,,0.00,WUHU216HW,2013-03-05 09:29:00,
2013-03-05 01:34:00,29.3,15.9,29.89,NNW,338,0.0,0.0,57,0.00,,,0.00,WUHU216HW,2013-03-05 09:34:00,
2013-03-05 01:39:00,29.3,15.9,29.89,North,0,0.0,0.0,57,0.00,,,0.00,WUHU216HW,2013-03-05 09:39:00,
2013-03-05 01:44:00,29.3,16.4,29.89,NNE,23,0.0,0.9,58,0.00,,,0.00,WUHU216HW,2013-03-05 09:44:00,
2013-03-05 01:49:00,29.5,16.6,29.89,North,0,0.4,0.9,58,0.00,,,0.00,WUHU216HW,2013-03-05 09:49:00,
2013-03-05 01:54:00,29.5,16.9,29.89,NNW,338,0.2,0.4,59,0.00,,,0.00,WUHU216HW,2013-03-05 09:54:00,
2013-03-05 01:59:00,29.5,16.6,29.89,North,0,0.0,0.4,58,0.00,,,0.00,WUHU216HW,2013-03-05 09:59:00,
2013-03-05 02:04:00,29.5,16.6,29.89,NW,315,0.0,0.4,58,0.00,,,0.00,WUHU216HW,2013-03-05 10:04:00,
2013-03-05 02:09:00,29.5,16.6,29.88,NNE,23,0.2,0.7,58,0.00,,,0.00,WUHU216HW,2013-03-05 10:09:00,
2013-03-05 02:14:00,29.5,16.6,29.88,North,0,0.0,0.7,58,0.00,,,0.00,WUHU216HW,2013-03-05 10:14:00,
2013-03-05 02:19:00,29.5,16.6,29.88,NNW,338,0.0,0.4,58,0.00,,,0.00,WUHU216HW,2013-03-05 10:19:00,
2013-03-05 02:24:00,29.3,16.4,29.88,North,0,0.0,0.2,58,0.00,,,0.00,WUHU216HW,2013-03-05 10:24:00,
2013-03-05 02:29:00,29.5,16.9,29.88,NE,45,0.2,0.2,59,0.00,,,0.00,WUHU216HW,2013-03-05 10:29:00,
2013-03-05 02:34:00,29.3,16.7,29.88,East,90,0.4,0.4,59,0.00,,,0.00,WUHU216HW,2013-03-05 10:34:00,
2013-03-05 02:39:00,29.3,16.7,29.87,East,90,0.0,0.4,59,0.00,,,0.00,WUHU216HW,2013-03-05 10:39:00,
2013-03-05 02:44:00,29.3,16.7,29.87,NE,45,0.0,0.2,59,0.00,,,0.00,WUHU216HW,2013-03-05 10:44:00,
2013-03-05 02:49:00,29.2,16.7,29.87,NE,45,0.0,0.2,59,0.00,,,0.00,WUHU216HW,2013-03-05 10:49:00,
2013-03-05 02:54:00,29.0,16.5,29.86,NE,45,0.0,0.0,59,0.00,,,0.00,WUHU216HW,2013-03-05 10:54:00,
2013-03-05 02:59:00,29.0,16.5,29.86,NE,45,0.0,0.0,59,0.00,,,0.00,WUHU216HW,2013-03-05 10:59:00,
2013-03-05 03:04:00,28.8,16.3,29.86,NE,45,0.0,0.0,59,0.00,,,0.00,WUHU216HW,2013-03-05 11:04:00,
2013-03-05 03:09:00,28.6,16.6,29.86,NE,45,0.0,0.0,60,0.00,,,0.00,WUHU216HW,2013-03-05 11:09:00,
2013-03-05 03:14:00,28.6,16.6,29.85,NE,45,0.0,0.0,60,0.00,,,0.00,WUHU216HW,2013-03-05 11:14:00,
2013-03-05 03:20:00,28.6,16.6,29.85,NE,45,0.0,0.0,60,0.00,,,0.00,WUHU216HW,2013-03-05 11:20:00,
2013-03-05 03:24:00,28.6,16.6,29.85,NE,45,0.0,0.0,60,0.00,,,0.00,WUHU216HW,2013-03-05 11:24:00,
2013-03-05 03:30:00,28.6,16.6,29.85,NE,45,0.0,0.2,60,0.00,,,0.00,WUHU216HW,2013-03-05 11:30:00,
2013-03-05 03:35:00,28.8,16.8,29.85,NE,45,0.0,0.2,60,0.00,,,0.00,WUHU216HW,2013-03-05 11:35:00,
2013-03-05 03:40:00,28.8,16.8,29.85,NE,45,0.4,0.4,60,0.00,,,0.00,WUHU216HW,2013-03-05 11:40:00,
2013-03-05 03:45:00,28.8,16.8,29.85,SSE,158,0.0,0.4,60,0.00,,,0.00,WUHU216HW,2013-03-05 11:45:00,
2013-03-05 03:50:00,28.8,17.1,29.85,SSE,158,0.0,0.4,61,0.00,,,0.00,WUHU216HW,2013-03-05 11:50:00,
2013-03-05 03:55:00,28.8,17.1,29.85,SSE,158,0.0,0.0,61,0.00,,,0.00,WUHU216HW,2013-03-05 11:55:00,
2013-03-05 04:00:00,28.8,17.1,29.85,NE,45,0.4,0.4,61,0.00,,,0.00,WUHU216HW,2013-03-05 12:00:00,
2013-03-05 04:05:00,29.0,17.2,29.85,NE,45,0.0,0.4,61,0.00,,,0.00,WUHU216HW,2013-03-05 12:05:00,
2013-03-05 04:10:00,29.3,17.9,29.84,NNE,23,0.7,0.7,62,0.00,,,0.00,WUHU216HW,2013-03-05 12:10:00,
2013-03-05 04:15:00,29.5,17.7,29.84,ENE,68,0.2,0.7,61,0.00,,,0.00,WUHU216HW,2013-03-05 12:15:00,
2013-03-05 04:20:00,29.7,17.9,29.84,ENE,68,0.0,0.7,61,0.00,,,0.00,WUHU216HW,2013-03-05 12:20:00,
2013-03-05 04:25:00,29.5,17.4,29.84,NE,45,0.0,0.2,60,0.00,,,0.00,WUHU216HW,2013-03-05 12:25:00,
2013-03-05 04:30:00,29.5,17.7,29.84,NE,45,0.0,0.4,61,0.00,,,0.00,WUHU216HW,2013-03-05 12:30:00,
2013-03-05 04:35:00,29.2,17.4,29.84,North,0,0.0,0.4,61,0.00,,,0.00,WUHU216HW,2013-03-05 12:35:00,
2013-03-05 04:40:00,29.2,17.4,29.84,NNW,338,0.0,0.4,61,0.00,,,0.00,WUHU216HW,2013-03-05 12:40:00,
2013-03-05 04:45:00,29.2,17.4,29.84,WSW,248,0.9,0.9,61,0.00,,,0.00,WUHU216HW,2013-03-05 12:45:00,
2013-03-05 04:50:00,29.2,17.4,29.83,SW,225,0.2,0.9,61,0.00,,,0.00,WUHU216HW,2013-03-05 12:50:00,
2013-03-05 04:55:00,29.2,17.7,29.84,WSW,248,0.7,0.7,62,0.00,,,0.00,WUHU216HW,2013-03-05 12:55:00,
2013-03-05 05:00:00,29.2,17.7,29.83,West,270,0.0,1.1,62,0.00,,,0.00,WUHU216HW,2013-03-05 13:00:00,
2013-03-05 05:05:00,29.3,17.9,29.84,West,270,0.7,1.1,62,0.00,,,0.00,WUHU216HW,2013-03-05 13:05:00,
2013-03-05 05:11:00,29.5,18.1,29.83,NNE,23,0.4,0.7,62,0.00,,,0.00,WUHU216HW,2013-03-05 13:11:00,
2013-03-05 05:16:00,29.7,18.3,29.83,NNE,23,0.7,1.1,62,0.00,,,0.00,WUHU216HW,2013-03-05 13:16:00,
2013-03-05 05:21:00,29.9,18.4,29.83,NNE,23,0.0,1.1,62,0.00,,,0.00,WUHU216HW,2013-03-05 13:21:00,
2013-03-05 05:26:00,30.2,18.7,29.83,NNE,23,0.2,0.7,62,0.00,,,0.00,WUHU216HW,2013-03-05 13:26:00,
2013-03-05 05:31:00,30.4,18.9,29.82,NNE,23,0.0,0.4,62,0.00,,,0.00,WUHU216HW,2013-03-05 13:31:00,
2013-03-05 05:36:00,30.6,18.7,29.82,NNE,23,0.0,0.4,61,0.00,,,0.00,WUHU216HW,2013-03-05 13:36:00,
2013-03-05 05:41:00,30.6,18.7,29.82,NNE,23,0.0,0.0,61,0.00,,,0.00,WUHU216HW,2013-03-05 13:41:00,
2013-03-05 05:46:00,30.8,19.3,29.82,SSW,203,0.7,0.7,62,0.00,,,0.00,WUHU216HW,2013-03-05 13:46:00,
2013-03-05 05:51:00,30.6,18.7,29.82,SSW,203,0.0,0.7,61,0.00,,,0.00,WUHU216HW,2013-03-05 13:51:00,
2013-03-05 05:56:00,30.6,19.1,29.81,ENE,68,0.4,1.1,62,0.00,,,0.00,WUHU216HW,2013-03-05 13:56:00,
2013-03-05 06:01:00,30.8,19.3,29.81,West,270,1.1,3.4,62,0.00,,,0.00,WUHU216HW,2013-03-05 14:01:00,
2013-03-05 06:06:00,30.4,18.9,29.81,ENE,68,0.4,3.4,62,0.00,,,0.00,WUHU216HW,2013-03-05 14:06:00,
2013-03-05 06:11:00,30.4,18.9,29.81,West,270,0.7,0.7,62,0.00,,,0.00,WUHU216HW,2013-03-05 14:11:00,
2013-03-05 06:16:00,30.4,18.9,29.81,WNW,293,0.0,0.7,62,0.00,,,0.00,WUHU216HW,2013-03-05 14:16:00,
2013-03-05 06:22:00,30.4,18.9,29.81,ENE,68,0.0,0.9,62,0.00,,,0.00,WUHU216HW,2013-03-05 14:22:00,
2013-03-05 06:27:00,30.6,19.1,29.80,North,0,1.1,1.1,62,0.00,,,0.00,WUHU216HW,2013-03-05 14:27:00,
2013-03-05 06:32:00,30.6,19.4,29.81,SSW,203,0.0,2.7,63,0.00,,,0.00,WUHU216HW,2013-03-05 14:32:00,
2013-03-05 06:37:00,30.4,19.6,29.80,NNW,338,2.0,2.7,64,0.00,,,0.00,WUHU216HW,2013-03-05 14:37:00,
2013-03-05 06:42:00,30.6,19.4,29.80,SSW,203,0.2,2.0,63,0.00,,,0.00,WUHU216HW,2013-03-05 14:42:00,
2013-03-05 06:47:00,30.6,19.4,29.80,NE,45,1.1,4.0,63,0.00,,,0.00,WUHU216HW,2013-03-05 14:47:00,
2013-03-05 06:52:00,30.4,19.3,29.79,WNW,293,1.3,4.0,63,0.00,,,0.00,WUHU216HW,2013-03-05 14:52:00,
2013-03-05 06:57:00,30.4,19.3,29.79,NE,45,0.0,1.8,63,0.00,,,0.00,WUHU216HW,2013-03-05 14:57:00,
2013-03-05 07:02:00,30.6,19.1,29.80,WSW,248,0.4,1.8,62,0.00,,,0.00,WUHU216HW,2013-03-05 15:02:00,
2013-03-05 07:07:00,30.6,19.4,29.79,North,0,0.7,0.7,63,0.00,,,0.00,WUHU216HW,2013-03-05 15:07:00,
2013-03-05 07:12:00,30.6,19.4,29.79,SW,225,0.4,0.7,63,0.00,,,0.00,WUHU216HW,2013-03-05 15:12:00,
2013-03-05 07:17:00,30.8,19.6,29.79,NE,45,0.2,0.7,63,0.00,,,0.00,WUHU216HW,2013-03-05 15:17:00,
2013-03-05 07:22:00,31.0,19.4,29.79,ENE,68,0.7,0.7,62,0.00,,,0.00,WUHU216HW,2013-03-05 15:22:00,
2013-03-05 07:27:00,31.1,19.6,29.79,SW,225,0.0,0.9,62,0.00,,,0.00,WUHU216HW,2013-03-05 15:27:00,
2013-03-05 07:32:00,31.1,19.6,29.79,SSW,203,0.0,0.9,62,0.00,,,0.00,WUHU216HW,2013-03-05 15:32:00,
2013-03-05 07:37:00,31.0,19.4,29.79,SW,225,0.9,1.1,62,0.00,,,0.00,WUHU216HW,2013-03-05 15:37:00,
2013-03-05 07:42:00,31.0,19.4,29.79,NW,315,0.0,1.1,62,0.00,,,0.00,WUHU216HW,2013-03-05 15:42:00,
2013-03-05 07:47:00,31.1,19.6,29.79,SW,225,0.4,0.4,62,0.00,,,0.00,WUHU216HW,2013-03-05 15:47:00,
2013-03-05 07:52:00,31.1,19.6,29.79,SW,225,0.0,0.4,62,0.00,,,0.00,WUHU216HW,2013-03-05 15:52:00,
2013-03-05 07:57:00,31.3,19.8,29.79,SSW,203,0.0,0.7,62,0.00,,,0.00,WUHU216HW,2013-03-05 15:57:00,
2013-03-05 08:03:00,31.5,20.0,29.79,SSW,203,1.3,1.3,62,0.00,,,0.00,WUHU216HW,2013-03-05 16:03:00,
2013-03-05 08:08:00,31.7,20.2,29.79,West,270,0.7,1.8,62,0.00,,,0.00,WUHU216HW,2013-03-05 16:08:00,
2013-03-05 08:13:00,31.7,20.2,29.79,ENE,68,0.4,1.8,62,0.00,,,0.00,WUHU216HW,2013-03-05 16:13:00,
2013-03-05 08:18:00,32.0,20.5,29.78,ENE,68,0.7,1.6,62,0.00,,,0.00,WUHU216HW,2013-03-05 16:18:00,
2013-03-05 08:23:00,32.2,20.4,29.79,South,180,0.4,1.3,61,0.00,,,0.00,WUHU216HW,2013-03-05 16:23:00,
2013-03-05 08:28:00,32.4,20.5,29.80,SW,225,0.4,1.3,61,0.00,,,0.00,WUHU216HW,2013-03-05 16:28:00,
2013-03-05 08:33:00,32.6,20.6,29.79,SE,135,0.4,1.3,61,0.00,,,0.00,WUHU216HW,2013-03-05 16:33:00,
2013-03-05 08:38:00,32.8,20.4,29.79,SSW,203,0.2,0.4,60,0.00,,,0.00,WUHU216HW,2013-03-05 16:38:00,
2013-03-05 08:43:00,32.8,20.4,29.79,SW,225,0.2,1.1,60,0.00,,,0.00,WUHU216HW,2013-03-05 16:43:00,
2013-03-05 08:48:00,32.8,20.4,29.79,SSW,203,0.4,1.1,60,0.00,,,0.00,WUHU216HW,2013-03-05 16:48:00,
2013-03-05 08:53:00,32.8,20.4,29.79,SSW,203,0.9,1.6,60,0.00,,,0.00,WUHU216HW,2013-03-05 16:53:00,
2013-03-05 08:58:00,33.1,20.8,29.78,South,180,1.6,2.5,60,0.00,,,0.00,WUHU216HW,2013-03-05 16:58:00,
2013-03-05 09:03:00,33.1,20.8,29.79,SE,135,0.4,2.5,60,0.00,,,0.00,WUHU216HW,2013-03-05 17:03:00,
2013-03-05 09:08:00,33.5,21.1,29.79,SE,135,1.8,1.8,60,0.00,,,0.00,WUHU216HW,2013-03-05 17:08:00,
2013-03-05 09:13:00,33.7,21.2,29.79,SSW,203,0.2,2.5,60,0.00,,,0.00,WUHU216HW,2013-03-05 17:13:00,
2013-03-05 09:18:00,33.8,21.0,29.78,SW,225,0.0,2.5,59,0.00,,,0.00,WUHU216HW,2013-03-05 17:18:00,
2013-03-05 09:23:00,33.8,21.0,29.78,WSW,248,0.4,1.1,59,0.00,,,0.00,WUHU216HW,2013-03-05 17:23:00,
2013-03-05 09:28:00,34.0,21.2,29.78,SSW,203,0.7,1.1,59,0.00,,,0.00,WUHU216HW,2013-03-05 17:28:00,
2013-03-05 09:33:00,34.4,21.5,29.78,SSW,203,0.7,0.7,59,0.00,,,0.00,WUHU216HW,2013-03-05 17:33:00,
2013-03-05 09:38:00,34.6,21.7,29.78,SSE,158,0.4,1.3,59,0.00,,,0.00,WUHU216HW,2013-03-05 17:38:00,
2013-03-05 09:44:00,34.9,22.1,29.78,SSW,203,0.0,1.3,59,0.00,,,0.00,WUHU216HW,2013-03-05 17:44:00,
2013-03-05 09:49:00,35.1,22.2,29.78,SSW,203,0.0,1.1,59,0.00,,,0.00,WUHU216HW,2013-03-05 17:49:00,
2013-03-05 09:54:00,35.6,22.8,29.78,SSW,203,1.1,1.1,59,0.00,,,0.00,WUHU216HW,2013-03-05 17:54:00,
2013-03-05 09:59:00,36.0,23.1,29.78,SW,225,0.9,1.8,59,0.00,,,0.00,WUHU216HW,2013-03-05 17:59:00,
2013-03-05 10:04:00,36.4,23.4,29.78,SW,225,0.9,1.8,59,0.00,,,0.00,WUHU216HW,2013-03-05 18:04:00,
2013-03-05 10:09:00,36.5,23.1,29.78,SSW,203,0.4,1.6,58,0.00,,,0.00,WUHU216HW,2013-03-05 18:09:00,
2013-03-05 10:14:00,36.9,23.5,29.78,SSW,203,0.2,1.6,58,0.00,,,0.00,WUHU216HW,2013-03-05 18:14:00,
2013-03-05 10:19:00,37.1,23.7,29.78,SSW,203,0.0,1.6,58,0.00,,,0.00,WUHU216HW,2013-03-05 18:19:00,
2013-03-05 10:24:00,37.4,23.9,29.78,SW,225,0.4,1.6,58,0.00,,,0.00,WUHU216HW,2013-03-05 18:24:00,
2013-03-05 10:25:00,37.6,24.1,29.78,WSW,248,0.7,1.3,58,0.00,,,0.00,WUHU216HW,2013-03-05 18:25:00,
2013-03-05 10:29:00,37.6,24.1,29.78,WSW,248,0.9,1.3,58,0.00,,,0.00,WUHU216HW,2013-03-05 18:29:00,
2013-03-05 10:30:00,37.6,24.1,29.78,SSE,158,1.1,1.3,58,0.00,,,0.00,WUHU216HW,2013-03-05 18:30:00,
2013-03-05 10:35:00,37.6,24.6,29.78,SSW,203,0.9,1.3,59,0.00,,,0.00,WUHU216HW,2013-03-05 18:35:00,
2013-03-05 10:40:00,37.8,25.2,29.78,SSE,158,0.4,1.3,60,0.00,,,0.00,WUHU216HW,2013-03-05 18:40:00,
2013-03-05 10:45:00,37.8,25.2,29.77,SSW,203,1.1,1.1,60,0.00,,,0.00,WUHU216HW,2013-03-05 18:45:00,
2013-03-05 10:50:00,38.0,25.8,29.77,SE,135,0.7,2.2,61,0.00,,,0.00,WUHU216HW,2013-03-05 18:50:00,
2013-03-05 10:55:00,38.2,25.8,29.77,SSW,203,1.1,2.2,61,0.00,,,0.00,WUHU216HW,2013-03-05 18:55:00,
2013-03-05 11:00:00,38.2,25.8,29.77,WSW,248,0.4,2.2,61,0.00,,,0.00,WUHU216HW,2013-03-05 19:00:00,
2013-03-05 11:06:00,38.3,26.4,29.77,SE,135,0.0,2.2,62,0.00,,,0.00,WUHU216HW,2013-03-05 19:06:00,
2013-03-05 11:11:00,38.5,26.6,29.77,South,180,0.2,1.3,62,0.00,,,0.00,WUHU216HW,2013-03-05 19:11:00,
2013-03-05 11:16:00,38.5,26.6,29.77,SSE,158,0.9,1.6,62,0.00,,,0.00,WUHU216HW,2013-03-05 19:16:00,
2013-03-05 11:21:00,38.5,26.9,29.77,SSW,203,0.0,1.8,63,0.00,,,0.00,WUHU216HW,2013-03-05 19:21:00,
2013-03-05 11:22:00,38.5,26.9,29.77,WSW,248,0.7,1.8,63,0.00,,,0.00,WUHU216HW,2013-03-05 19:22:00,
2013-03-05 11:27:00,38.2,26.7,29.77,SSW,203,3.4,3.4,63,0.00,,,0.00,WUHU216HW,2013-03-05 19:27:00,
2013-03-05 11:32:00,37.8,28.2,29.77,NNW,338,1.1,3.4,68,0.01,,,0.01,WUHU216HW,2013-03-05 19:32:00,
2013-03-05 11:37:00,37.8,29.6,29.76,NW,315,2.7,2.7,72,0.01,,,0.01,WUHU216HW,2013-03-05 19:37:00,
2013-03-05 11:42:00,38.5,30.6,29.76,SW,225,0.7,2.9,73,0.01,,,0.01,WUHU216HW,2013-03-05 19:42:00,
2013-03-05 11:47:00,39.1,31.4,29.77,SE,135,4.3,4.3,74,0.01,,,0.01,WUHU216HW,2013-03-05 19:47:00,
2013-03-05 11:52:00,39.4,30.8,29.76,SSE,158,2.5,4.3,71,0.01,,,0.01,WUHU216HW,2013-03-05 19:52:00,
2013-03-05 11:57:00,39.8,31.2,29.77,ESE,113,0.4,2.9,71,0.01,,,0.01,WUHU216HW,2013-03-05 19:57:00,
2013-03-05 12:02:00,40.0,31.3,29.76,NNE,23,2.5,2.5,71,0.01,,,0.01,WUHU216HW,2013-03-05 20:02:00,
2013-03-05 12:08:00,40.1,31.5,29.76,SW,225,1.1,5.4,71,0.01,,,0.01,WUHU216HW,2013-03-05 20:08:00,
2013-03-05 12:13:00,40.7,31.7,29.76,NW,315,1.8,5.4,70,0.01,,,0.01,WUHU216HW,2013-03-05 20:13:00,
2013-03-05 12:18:00,41.0,32.0,29.76,SW,225,1.1,2.0,70,0.01,,,0.01,WUHU216HW,2013-03-05 20:18:00,
2013-03-05 12:23:00,41.6,32.2,29.76,WSW,248,0.4,1.6,69,0.01,,,0.01,WUHU216HW,2013-03-05 20:23:00,
2013-03-05 12:28:00,41.4,31.2,29.76,NW,315,2.5,3.1,67,0.00,,,0.01,WUHU216HW,2013-03-05 20:28:00,
2013-03-05 12:34:00,41.0,30.2,29.76,NE,45,4.5,4.5,65,0.00,,,0.01,WUHU216HW,2013-03-05 20:34:00,
2013-03-05 12:39:00,40.7,29.1,29.76,ENE,68,4.0,4.5,63,0.00,,,0.01,WUHU216HW,2013-03-05 20:39:00,
2013-03-05 12:44:00,40.3,28.7,29.76,ENE,68,6.9,6.9,63,0.00,,,0.01,WUHU216HW,2013-03-05 20:44:00,
2013-03-05 12:49:00,40.0,27.9,29.76,North,0,10.5,10.5,62,0.00,,,0.01,WUHU216HW,2013-03-05 20:49:00,
2013-03-05 12:54:00,40.0,28.4,29.76,NNE,23,3.4,10.5,63,0.00,,,0.01,WUHU216HW,2013-03-05 20:54:00,
2013-03-05 12:59:00,40.3,28.7,29.76,WSW,248,3.6,4.7,63,0.00,,,0.01,WUHU216HW,2013-03-05 20:59:00,
2013-03-05 13:05:00,41.0,29.4,29.76,NE,45,0.7,4.7,63,0.00,,,0.01,WUHU216HW,2013-03-05 21:05:00,
2013-03-05 13:10:00,41.4,29.3,29.76,WSW,248,0.2,3.1,62,0.00,,,0.01,WUHU216HW,2013-03-05 21:10:00,
2013-03-05 13:15:00,41.8,29.7,29.76,East,90,0.2,1.1,62,0.00,,,0.01,WUHU216HW,2013-03-05 21:15:00,
2013-03-05 13:20:00,42.1,29.6,29.76,SE,135,0.7,3.4,61,0.00,,,0.01,WUHU216HW,2013-03-05 21:20:00,
2013-03-05 13:25:00,42.3,29.8,29.76,SSW,203,0.4,3.4,61,0.00,,,0.01,WUHU216HW,2013-03-05 21:25:00,
2013-03-05 13:30:00,42.8,30.2,29.76,SE,135,0.2,0.9,61,0.00,,,0.01,WUHU216HW,2013-03-05 21:30:00,
2013-03-05 13:35:00,42.8,30.2,29.76,SSE,158,0.4,2.7,61,0.00,,,0.01,WUHU216HW,2013-03-05 21:35:00,
2013-03-05 13:40:00,43.0,30.1,29.76,NNW,338,2.5,2.7,60,0.00,,,0.01,WUHU216HW,2013-03-05 21:40:00,
2013-03-05 13:45:00,42.7,28.5,29.76,East,90,2.9,3.6,57,0.00,,,0.01,WUHU216HW,2013-03-05 21:45:00,
2013-03-05 13:50:00,42.3,28.5,29.76,NE,45,0.7,4.0,58,0.00,,,0.01,WUHU216HW,2013-03-05 21:50:00,
2013-03-05 13:51:00,42.3,28.1,29.76,North,0,3.1,4.0,57,0.00,,,0.01,WUHU216HW,2013-03-05 21:51:00,
2013-03-05 13:56:00,42.3,28.1,29.75,North,0,4.7,4.7,57,0.00,,,0.01,WUHU216HW,2013-03-05 21:56:00,
2013-03-05 14:00:00,42.1,27.9,29.75,NE,45,0.4,4.7,57,0.00,,,0.01,WUHU216HW,2013-03-05 22:00:00,
2013-03-05 14:06:00,42.1,27.0,29.75,NNW,338,4.7,5.4,55,0.00,,,0.01,WUHU216HW,2013-03-05 22:06:00,
2013-03-05 14:12:00,41.8,27.2,29.75,NNE,23,4.9,5.4,56,0.00,,,0.01,WUHU216HW,2013-03-05 22:12:00,
2013-03-05 14:17:00,41.2,26.2,29.75,North,0,4.5,4.9,55,0.00,,,0.01,WUHU216HW,2013-03-05 22:17:00,
2013-03-05 14:22:00,41.2,26.7,29.75,North,0,2.5,4.5,56,0.00,,,0.01,WUHU216HW,2013-03-05 22:22:00,
2013-03-05 14:27:00,41.2,26.7,29.75,NNW,338,1.6,3.8,56,0.00,,,0.01,WUHU216HW,2013-03-05 22:27:00,
2013-03-05 14:41:00,40.7,26.1,29.75,North,0,3.6,4.0,56,0.00,,,0.01,WUHU216HW,2013-03-05 22:41:00,
2013-03-05 14:46:00,40.7,26.1,29.76,NNE,23,3.6,4.7,56,0.00,,,0.01,WUHU216HW,2013-03-05 22:46:00,
2013-03-05 14:51:00,40.7,26.1,29.76,NE,45,1.3,3.6,56,0.00,,,0.01,WUHU216HW,2013-03-05 22:51:00,
2013-03-05 14:56:00,40.5,26.4,29.75,SW,225,0.4,4.3,57,0.00,,,0.01,WUHU216HW,2013-03-05 22:56:00,
2013-03-05 15:01:00,40.1,26.0,29.75,East,90,3.4,4.5,57,0.00,,,0.01,WUHU216HW,2013-03-05 23:01:00,
2013-03-05 15:06:00,40.0,25.8,29.75,NNE,23,5.4,5.4,57,0.00,,,0.01,WUHU216HW,2013-03-05 23:06:00,
2013-03-05 15:12:00,40.0,25.8,29.76,NW,315,2.2,5.4,57,0.00,,,0.01,WUHU216HW,2013-03-05 23:12:00,
2013-03-05 15:17:00,39.6,25.5,29.76,East,90,0.7,3.8,57,0.00,,,0.01,WUHU216HW,2013-03-05 23:17:00,
2013-03-05 15:22:00,39.4,25.4,29.76,North,0,0.4,3.8,57,0.00,,,0.01,WUHU216HW,2013-03-05 23:22:00,
2013-03-05 15:27:00,39.1,25.0,29.76,NW,315,1.1,3.4,57,0.00,,,0.01,WUHU216HW,2013-03-05 23:27:00,
2013-03-05 15:32:00,38.7,25.1,29.76,WNW,293,0.7,3.8,58,0.00,,,0.01,WUHU216HW,2013-03-05 23:32:00,
2013-03-05 15:37:00,38.7,25.6,29.76,ENE,68,1.8,3.8,59,0.00,,,0.01,WUHU216HW,2013-03-05 23:37:00,
2013-03-05 15:42:00,38.9,25.8,29.76,NW,315,0.4,1.8,59,0.00,,,0.01,WUHU216HW,2013-03-05 23:42:00,
2013-03-05 15:47:00,38.7,25.6,29.76,ENE,68,2.2,2.9,59,0.00,,,0.01,WUHU216HW,2013-03-05 23:47:00,
2013-03-05 15:52:00,38.5,25.4,29.76,NNE,23,0.4,2.9,59,0.00,,,0.01,WUHU216HW,2013-03-05 23:52:00,
2013-03-05 15:57:00,38.5,25.4,29.76,West,270,0.0,2.7,59,0.00,,,0.01,WUHU216HW,2013-03-05 23:57:00,
2013-03-05 16:02:00,38.5,25.8,29.76,SE,135,0.2,4.3,60,0.00,,,0.01,WUHU216HW,2013-03-06 00:02:00,
2013-03-05 16:07:00,38.5,25.8,29.75,NE,45,0.4,4.5,60,0.00,,,0.01,WUHU216HW,2013-03-06 00:07:00,
2013-03-05 16:12:00,38.3,26.0,29.76,WNW,293,0.0,4.5,61,0.00,,,0.01,WUHU216HW,2013-03-06 00:12:00,
2013-03-05 16:17:00,38.2,26.3,29.76,NNW,338,0.4,1.1,62,0.00,,,0.01,WUHU216HW,2013-03-06 00:17:00,
2013-03-05 16:22:00,38.2,26.3,29.76,NNW,338,0.2,1.1,62,0.00,,,0.01,WUHU216HW,2013-03-06 00:22:00,
2013-03-05 16:27:00,38.0,26.1,29.76,West,270,0.0,0.7,62,0.00,,,0.01,WUHU216HW,2013-03-06 00:27:00,
2013-03-05 16:32:00,37.8,25.9,29.76,West,270,0.0,0.7,62,0.00,,,0.01,WUHU216HW,2013-03-06 00:32:00,
2013-03-05 16:37:00,37.8,26.3,29.76,North,0,0.9,1.3,63,0.00,,,0.01,WUHU216HW,2013-03-06 00:37:00,
2013-03-05 16:42:00,37.4,26.0,29.76,West,270,0.4,1.3,63,0.00,,,0.01,WUHU216HW,2013-03-06 00:42:00,
2013-03-05 16:47:00,37.1,26.4,29.76,WNW,293,0.0,1.1,65,0.00,,,0.01,WUHU216HW,2013-03-06 00:47:00,
2013-03-05 16:52:00,36.5,26.7,29.76,NW,315,1.1,1.6,67,0.00,,,0.01,WUHU216HW,2013-03-06 00:52:00,
2013-03-05 16:57:00,36.0,26.8,29.76,North,0,0.2,1.6,69,0.00,,,0.01,WUHU216HW,2013-03-06 00:57:00,
2013-03-05 17:02:00,35.8,26.7,29.76,WNW,293,0.2,0.9,69,0.00,,,0.01,WUHU216HW,2013-03-06 01:02:00,
2013-03-05 17:07:00,35.3,26.8,29.75,NW,315,0.0,1.6,71,0.00,,,0.01,WUHU216HW,2013-03-06 01:07:00,
2013-03-05 17:12:00,35.1,26.7,29.75,SSE,158,0.0,1.6,71,0.00,,,0.01,WUHU216HW,2013-03-06 01:12:00,
2013-03-05 17:17:00,35.1,26.7,29.75,West,270,1.1,1.1,71,0.00,,,0.01,WUHU216HW,2013-03-06 01:17:00,
2013-03-05 17:23:00,34.9,26.7,29.75,WNW,293,0.0,1.1,72,0.00,,,0.01,WUHU216HW,2013-03-06 01:23:00,
2013-03-05 17:28:00,34.9,27.1,29.75,ENE,68,0.0,1.1,73,0.00,,,0.01,WUHU216HW,2013-03-06 01:28:00,
2013-03-05 17:33:00,34.9,26.7,29.75,SSW,203,0.4,0.4,72,0.00,,,0.01,WUHU216HW,2013-03-06 01:33:00,
2013-03-05 17:38:00,34.9,26.7,29.75,SSW,203,0.0,0.4,72,0.00,,,0.01,WUHU216HW,2013-03-06 01:38:00,
2013-03-05 17:43:00,34.7,26.9,29.74,SSW,203,0.0,0.0,73,0.00,,,0.01,WUHU216HW,2013-03-06 01:43:00,
2013-03-05 17:48:00,34.7,26.9,29.75,SSW,203,0.0,0.0,73,0.00,,,0.01,WUHU216HW,2013-03-06 01:48:00,
2013-03-05 17:53:00,34.6,26.7,29.74,SSW,203,0.0,0.0,73,0.01,,,0.01,WUHU216HW,2013-03-06 01:53:00,
2013-03-05 17:58:00,34.2,26.6,29.74,SSW,203,0.0,0.0,74,0.01,,,0.02,WUHU216HW,2013-03-06 01:58:00,
2013-03-05 18:03:00,34.2,26.6,29.74,SSW,203,0.4,0.4,74,0.01,,,0.02,WUHU216HW,2013-03-06 02:03:00,
2013-03-05 18:08:00,34.0,26.5,29.74,SW,225,0.0,0.4,74,0.01,,,0.02,WUHU216HW,2013-03-06 02:08:00,
2013-03-05 18:13:00,34.0,26.8,29.74,SW,225,0.0,0.4,75,0.01,,,0.02,WUHU216HW,2013-03-06 02:13:00,
2013-03-05 18:18:00,33.8,26.6,29.74,SW,225,0.0,0.2,75,0.01,,,0.02,WUHU216HW,2013-03-06 02:18:00,
2013-03-05 18:23:00,33.8,27.0,29.74,WSW,248,1.1,1.1,76,0.01,,,0.02,WUHU216HW,2013-03-06 02:23:00,
2013-03-05 18:28:00,33.7,27.5,29.74,NW,315,0.0,1.1,78,0.01,,,0.02,WUHU216HW,2013-03-06 02:28:00,
2013-03-05 18:33:00,33.7,27.1,29.73,NW,315,0.2,1.1,77,0.01,,,0.02,WUHU216HW,2013-03-06 02:33:00,
2013-03-05 18:38:00,33.8,27.6,29.73,NNW,338,0.0,0.4,78,0.01,,,0.02,WUHU216HW,2013-03-06 02:38:00,
2013-03-05 18:43:00,34.0,27.8,29.73,NNW,338,0.0,0.4,78,0.01,,,0.02,WUHU216HW,2013-03-06 02:43:00,
2013-03-05 18:48:00,34.2,28.0,29.73,WNW,293,0.4,0.4,78,0.01,,,0.02,WUHU216HW,2013-03-06 02:48:00,
2013-03-05 18:53:00,34.4,28.2,29.73,NNW,338,0.2,0.4,78,0.00,,,0.02,WUHU216HW,2013-03-06 02:53:00,
2013-03-05 18:58:00,34.6,28.6,29.73,NNW,338,0.0,0.4,79,0.00,,,0.02,WUHU216HW,2013-03-06 02:58:00,
2013-03-05 19:04:00,34.6,28.6,29.73,West,270,0.2,1.1,79,0.00,,,0.02,WUHU216HW,2013-03-06 03:04:00,
2013-03-05 19:09:00,34.6,28.6,29.73,East,90,3.4,4.7,79,0.00,,,0.02,WUHU216HW,2013-03-06 03:09:00,
2013-03-05 19:14:00,34.4,28.2,29.73,SE,135,0.4,4.7,78,0.00,,,0.02,WUHU216HW,2013-03-06 03:14:00,
2013-03-05 19:19:00,34.2,28.0,29.73,ESE,113,1.8,2.7,78,0.00,,,0.02,WUHU216HW,2013-03-06 03:19:00,
2013-03-05 19:24:00,34.2,28.3,29.73,ESE,113,0.9,2.7,79,0.00,,,0.02,WUHU216HW,2013-03-06 03:24:00,
2013-03-05 19:29:00,34.2,28.3,29.73,ESE,113,1.1,1.1,79,0.00,,,0.02,WUHU216HW,2013-03-06 03:29:00,
2013-03-05 19:34:00,34.2,28.3,29.72,ENE,68,1.6,1.6,79,0.00,,,0.02,WUHU216HW,2013-03-06 03:34:00,
2013-03-05 19:39:00,34.2,28.3,29.72,ESE,113,1.1,1.6,79,0.00,,,0.02,WUHU216HW,2013-03-06 03:39:00,
2013-03-05 19:44:00,34.2,28.3,29.72,East,90,0.2,1.3,79,0.00,,,0.02,WUHU216HW,2013-03-06 03:44:00,
2013-03-05 19:49:00,34.2,28.3,29.72,East,90,0.7,2.0,79,0.00,,,0.02,WUHU216HW,2013-03-06 03:49:00,
2013-03-05 19:54:00,34.2,28.3,29.71,NE,45,0.9,2.0,79,0.00,,,0.02,WUHU216HW,2013-03-06 03:54:00,
2013-03-05 19:59:00,34.0,28.1,29.71,SE,135,0.2,1.8,79,0.00,,,0.02,WUHU216HW,2013-03-06 03:59:00,
2013-03-05 20:04:00,34.2,28.3,29.71,ESE,113,0.0,0.7,79,0.00,,,0.02,WUHU216HW,2013-03-06 04:04:00,
2013-03-05 20:09:00,34.0,28.4,29.71,NE,45,0.0,0.4,80,0.00,,,0.02,WUHU216HW,2013-03-06 04:09:00,
2013-03-05 20:14:00,34.0,28.1,29.71,ESE,113,0.0,0.4,79,0.00,,,0.02,WUHU216HW,2013-03-06 04:14:00,
2013-03-05 20:19:00,33.8,28.3,29.70,NE,45,0.0,1.1,80,0.00,,,0.02,WUHU216HW,2013-03-06 04:19:00,
2013-03-05 20:24:00,33.8,27.9,29.70,ESE,113,0.2,1.1,79,0.00,,,0.02,WUHU216HW,2013-03-06 04:24:00,
2013-03-05 20:29:00,33.8,27.9,29.70,SSE,158,0.0,0.7,79,0.00,,,0.02,WUHU216HW,2013-03-06 04:29:00,
2013-03-05 20:34:00,33.8,28.3,29.70,West,270,0.2,0.7,80,0.00,,,0.02,WUHU216HW,2013-03-06 04:34:00,
2013-03-05 20:39:00,33.7,28.1,29.70,West,270,0.2,0.7,80,0.00,,,0.02,WUHU216HW,2013-03-06 04:39:00,
2013-03-05 20:44:00,33.5,27.9,29.70,SE,135,0.2,0.4,80,0.00,,,0.02,WUHU216HW,2013-03-06 04:44:00,
2013-03-05 20:49:00,33.5,27.9,29.70,SE,135,0.0,0.4,80,0.00,,,0.02,WUHU216HW,2013-03-06 04:49:00,
2013-03-05 20:54:00,33.5,27.9,29.70,SSE,158,0.0,0.4,80,0.00,,,0.02,WUHU216HW,2013-03-06 04:54:00,
2013-03-05 20:59:00,33.5,27.9,29.70,West,270,0.4,0.4,80,0.00,,,0.02,WUHU216HW,2013-03-06 04:59:00,
2013-03-05 21:00:00,33.5,27.9,29.70,West,270,0.4,0.4,80,0.00,,,0.02,WUHU216HW,2013-03-06 05:00:00,
2013-03-05 21:05:00,33.5,27.9,29.69,WSW,248,0.0,0.4,80,0.00,,,0.02,WUHU216HW,2013-03-06 05:05:00,
2013-03-05 21:10:00,33.3,27.8,29.69,West,270,0.0,0.2,80,0.00,,,0.02,WUHU216HW,2013-03-06 05:10:00,
2013-03-05 21:15:00,33.3,28.1,29.69,West,270,0.0,1.1,81,0.00,,,0.02,WUHU216HW,2013-03-06 05:15:00,
2013-03-05 21:20:00,33.1,27.9,29.69,WNW,293,0.2,1.1,81,0.00,,,0.02,WUHU216HW,2013-03-06 05:20:00,
2013-03-05 21:25:00,32.9,28.0,29.69,ENE,68,1.8,1.8,82,0.00,,,0.02,WUHU216HW,2013-03-06 05:25:00,
2013-03-05 21:30:00,33.1,28.2,29.69,WSW,248,0.4,1.8,82,0.00,,,0.02,WUHU216HW,2013-03-06 05:30:00,
2013-03-05 21:35:00,33.1,28.2,29.69,NNW,338,0.0,0.9,82,0.00,,,0.02,WUHU216HW,2013-03-06 05:35:00,
2013-03-05 21:41:00,32.9,27.7,29.69,NW,315,0.0,0.4,81,0.00,,,0.02,WUHU216HW,2013-03-06 05:41:00,
2013-03-05 21:46:00,32.9,27.7,29.68,North,0,0.0,0.9,81,0.00,,,0.02,WUHU216HW,2013-03-06 05:46:00,
2013-03-05 21:51:00,33.1,27.9,29.68,North,0,0.9,0.9,81,0.00,,,0.02,WUHU216HW,2013-03-06 05:51:00,
2013-03-05 21:56:00,33.3,28.1,29.68,North,0,0.7,1.1,81,0.00,,,0.02,WUHU216HW,2013-03-06 05:56:00,
2013-03-05 22:01:00,33.5,28.5,29.68,North,0,0.9,1.1,82,0.00,,,0.02,WUHU216HW,2013-03-06 06:01:00,
2013-03-05 22:06:00,33.5,28.3,29.67,North,0,1.1,1.1,81,0.00,,,0.02,WUHU216HW,2013-03-06 06:06:00,
2013-03-05 22:11:00,33.7,28.4,29.67,North,0,0.4,1.3,81,0.00,,,0.02,WUHU216HW,2013-03-06 06:11:00,
2013-03-05 22:16:00,33.7,28.4,29.67,SSW,203,0.4,1.3,81,0.00,,,0.02,WUHU216HW,2013-03-06 06:16:00,
2013-03-05 22:21:00,33.7,28.4,29.67,ESE,113,0.4,0.9,81,0.00,,,0.02,WUHU216HW,2013-03-06 06:21:00,
2013-03-05 22:26:00,33.7,28.4,29.67,East,90,0.0,0.9,81,0.00,,,0.02,WUHU216HW,2013-03-06 06:26:00,
2013-03-05 22:31:00,33.5,28.3,29.67,SE,135,0.2,1.1,81,0.00,,,0.02,WUHU216HW,2013-03-06 06:31:00,
2013-03-05 22:36:00,33.5,28.5,29.66,WSW,248,0.4,1.1,82,0.00,,,0.02,WUHU216HW,2013-03-06 06:36:00,
2013-03-05 22:41:00,33.3,28.1,29.66,West,270,0.9,0.9,81,0.00,,,0.02,WUHU216HW,2013-03-06 06:41:00,
2013-03-05 22:46:00,33.1,28.2,29.66,NW,315,1.3,1.3,82,0.00,,,0.02,WUHU216HW,2013-03-06 06:46:00,
2013-03-05 22:51:00,32.8,27.9,29.66,WSW,248,1.1,1.3,82,0.00,,,0.02,WUHU216HW,2013-03-06 06:51:00,
2013-03-05 22:56:00,32.6,28.0,29.66,SSW,203,0.2,1.8,83,0.00,,,0.02,WUHU216HW,2013-03-06 06:56:00,
2013-03-05 23:01:00,32.6,27.7,29.66,SSE,158,0.4,0.9,82,0.00,,,0.02,WUHU216HW,2013-03-06 07:01:00,
2013-03-05 23:06:00,32.6,27.7,29.66,SSE,158,0.4,0.9,82,0.00,,,0.02,WUHU216HW,2013-03-06 07:06:00,
2013-03-05 23:11:00,32.8,27.9,29.65,SSW,203,0.0,0.4,82,0.00,,,0.02,WUHU216HW,2013-03-06 07:11:00,
2013-03-05 23:16:00,32.6,27.5,29.65,SW,225,0.0,0.4,81,0.00,,,0.02,WUHU216HW,2013-03-06 07:16:00,
2013-03-05 23:21:00,32.0,27.2,29.65,NW,315,0.9,1.1,82,0.00,,,0.02,WUHU216HW,2013-03-06 07:21:00,
2013-03-05 23:27:00,31.5,27.0,29.65,North,0,0.7,1.1,83,0.00,,,0.02,WUHU216HW,2013-03-06 07:27:00,
2013-03-05 23:32:00,31.3,26.8,29.64,East,90,0.0,0.9,83,0.00,,,0.02,WUHU216HW,2013-03-06 07:32:00,
2013-03-05 23:37:00,31.5,27.0,29.64,SSE,158,0.9,0.9,83,0.00,,,0.02,WUHU216HW,2013-03-06 07:37:00,
2013-03-05 23:42:00,31.7,27.2,29.64,SE,135,0.0,0.9,83,0.00,,,0.02,WUHU216HW,2013-03-06 07:42:00,
2013-03-05 23:47:00,31.9,27.4,29.64,ESE,113,0.4,1.1,83,0.00,,,0.02,WUHU216HW,2013-03-06 07:47:00,
2013-03-05 23:52:00,31.9,27.0,29.64,South,180,0.4,1.1,82,0.00,,,0.02,WUHU216HW,2013-03-06 07:52:00,
2013-03-05 23:57:00,31.9,27.0,29.64,SSW,203,0.2,1.1,82,0.00,,,0.02,WUHU216HW,2013-03-06 07:57:00,